Time;durP1;ratioP1;P1;durP2;ratioP2;P2;SDS_P1;SDS_P2;PMS_P1;PMS_P2;Temp;Humidity;BMP_temperature;BMP_pressure;BME280_temperature;BME280_humidity;BME280_pressure;Samples;Min_cycle;Max_cycle;Signal;HPM_P1;HPM_P2
2021/08/01 00:01:48;;;;;;;5.20;4.00;;;18.20;99.90;;;;;;4943262;28;20207;-73
2021/08/01 00:04:16;;;;;;;6.27;4.40;;;18.00;99.90;;;;;;4937811;28;20646;-73
2021/08/01 00:06:42;;;;;;;4.20;3.83;;;18.10;99.90;;;;;;4939410;28;20627;-73
2021/08/01 00:09:10;;;;;;;4.90;4.20;;;18.10;99.90;;;;;;4936282;28;20744;-73
2021/08/01 00:11:35;;;;;;;5.30;4.20;;;18.10;99.90;;;;;;4940831;28;20188;-73
2021/08/01 00:14:03;;;;;;;4.30;4.00;;;18.10;99.90;;;;;;4943259;28;20686;-73
2021/08/01 00:16:34;;;;;;;4.83;4.40;;;18.10;99.90;;;;;;4941987;28;20263;-75
2021/08/01 00:19:00;;;;;;;5.23;4.73;;;18.10;99.90;;;;;;4937989;28;20681;-74
2021/08/01 00:21:25;;;;;;;4.50;4.10;;;18.00;99.90;;;;;;4942628;28;20619;-73
2021/08/01 00:23:51;;;;;;;4.60;4.10;;;18.00;99.90;;;;;;4939407;28;20730;-73
2021/08/01 00:26:20;;;;;;;4.43;3.93;;;18.00;99.90;;;;;;4943272;28;21080;-73
2021/08/01 00:28:45;;;;;;;5.07;4.30;;;18.00;99.90;;;;;;4942008;28;20195;-73
2021/08/01 00:31:13;;;;;;;5.00;4.50;;;18.00;99.90;;;;;;4935676;28;20730;-73
2021/08/01 00:33:41;;;;;;;5.10;4.10;;;18.00;99.90;;;;;;4942699;28;20212;-73
2021/08/01 00:36:14;;;;;;;4.87;4.03;;;18.00;99.90;;;;;;4942618;28;20993;-73
2021/08/01 00:38:39;;;;;;;4.67;4.27;;;18.00;99.90;;;;;;4943917;28;21160;-73
2021/08/01 00:41:05;;;;;;;5.00;4.53;;;18.00;99.90;;;;;;4936283;28;20655;-73
2021/08/01 00:43:32;;;;;;;5.30;4.80;;;18.00;99.90;;;;;;4940419;28;20214;-73
2021/08/01 00:45:58;;;;;;;4.77;4.27;;;18.00;99.90;;;;;;4943994;28;20235;-73
2021/08/01 00:48:26;;;;;;;5.07;4.20;;;18.00;99.90;;;;;;4946728;28;21221;-74
2021/08/01 00:51:00;;;;;;;5.10;4.60;;;18.00;99.90;;;;;;4949600;28;20645;-74
2021/08/01 00:53:26;;;;;;;5.07;4.57;;;18.00;99.90;;;;;;4947802;28;20805;-73
2021/08/01 00:55:51;;;;;;;6.00;4.90;;;18.00;99.90;;;;;;4944576;29;21301;-75
2021/08/01 00:58:19;;;;;;;5.30;4.90;;;18.10;99.90;;;;;;4951018;28;20618;-73
2021/08/01 01:03:59;;;;;;;4.83;4.30;;;18.10;99.90;;;;;;4947463;28;20638;-73
2021/08/01 01:06:43;;;;;;;5.30;4.40;;;18.10;99.90;;;;;;4945495;28;20636;-73
2021/08/01 01:09:23;;;;;;;6.43;4.63;;;18.10;99.90;;;;;;4945053;28;20669;-72
2021/08/01 01:11:53;;;;;;;5.30;4.70;;;18.00;99.90;;;;;;4947354;28;21177;-75
2021/08/01 01:14:27;;;;;;;5.27;4.60;;;17.90;99.90;;;;;;4943132;28;20674;-75
2021/08/01 01:16:59;;;;;;;5.20;4.80;;;17.90;99.90;;;;;;4943224;28;20725;-74
2021/08/01 01:19:52;;;;;;;5.77;4.33;;;17.90;99.90;;;;;;4948752;28;21261;-74
2021/08/01 01:22:49;;;;;;;5.03;4.53;;;18.00;99.90;;;;;;4948901;28;20611;-75
2021/08/01 01:25:21;;;;;;;6.40;4.80;;;17.90;99.90;;;;;;4945923;29;20645;-75
2021/08/01 01:27:59;;;;;;;6.00;5.40;;;18.00;99.90;;;;;;4949253;28;21281;-75
2021/08/01 01:30:29;;;;;;;6.47;5.50;;;17.90;99.90;;;;;;4943309;28;20669;-75
2021/08/01 01:33:05;;;;;;;4.60;4.20;;;17.90;99.90;;;;;;4943590;28;20805;-75
2021/08/01 01:35:43;;;;;;;5.67;4.27;;;17.80;99.90;;;;;;4941946;28;20804;-74
2021/08/01 01:38:11;;;;;;;4.90;4.50;;;17.90;99.90;;;;;;4946919;28;20717;-75
2021/08/01 01:40:38;;;;;;;5.33;4.87;;;17.90;99.90;;;;;;4942179;28;20795;-74
2021/08/01 01:43:06;;;;;;;4.57;4.20;;;17.90;99.90;;;;;;4937278;28;20650;-74
2021/08/01 01:45:37;;;;;;;6.40;4.77;;;17.90;99.90;;;;;;4945857;28;20645;-75
2021/08/01 01:48:08;;;;;;;4.90;4.40;;;17.90;99.90;;;;;;4946907;28;20626;-75
2021/08/01 01:50:36;;;;;;;4.80;4.40;;;17.80;99.90;;;;;;4937271;28;20969;-73
2021/08/01 01:53:05;;;;;;;5.20;4.57;;;17.80;99.90;;;;;;4944800;28;20983;-73
2021/08/01 01:55:38;;;;;;;5.27;4.83;;;17.80;99.90;;;;;;4946721;28;20705;-73
2021/08/01 01:58:06;;;;;;;5.40;5.00;;;17.80;99.90;;;;;;4944905;28;20626;-73
2021/08/01 02:00:31;;;;;;;5.33;4.10;;;17.90;99.90;;;;;;4943284;28;20734;-73
2021/08/01 02:02:57;;;;;;;4.83;4.30;;;17.90;99.90;;;;;;4937000;28;20643;-73
2021/08/01 02:05:25;;;;;;;4.70;4.17;;;17.90;99.90;;;;;;4944440;28;20703;-73
2021/08/01 02:07:50;;;;;;;6.80;4.30;;;17.90;99.90;;;;;;4938901;28;20198;-73
2021/08/01 02:10:47;;;;;;;4.23;3.80;;;17.90;99.90;;;;;;4939936;28;20635;-73
2021/08/01 02:13:19;;;;;;;4.50;4.10;;;18.00;99.90;;;;;;4935088;28;20711;-73
2021/08/01 02:15:54;;;;;;;4.70;4.20;;;18.00;99.90;;;;;;4943125;28;21228;-73
2021/08/01 02:18:27;;;;;;;4.50;4.03;;;17.80;99.90;;;;;;4940975;28;20717;-73
2021/08/01 02:20:55;;;;;;;5.20;3.67;;;17.80;99.90;;;;;;4938182;28;20650;-73
2021/08/01 02:23:32;;;;;;;5.40;4.03;;;17.90;99.90;;;;;;4943474;28;20654;-73
2021/08/01 02:26:05;;;;;;;4.13;3.83;;;17.80;99.90;;;;;;4943855;28;20638;-73
2021/08/01 02:28:32;;;;;;;5.23;4.50;;;17.90;99.90;;;;;;4938334;28;20722;-73
2021/08/01 02:31:05;;;;;;;5.53;3.97;;;17.90;99.90;;;;;;4942146;28;20650;-73
2021/08/01 02:33:32;;;;;;;6.30;4.00;;;17.90;99.90;;;;;;4941131;28;20734;-73
2021/08/01 02:36:00;;;;;;;4.53;3.60;;;17.90;99.90;;;;;;4930267;28;20654;-73
2021/08/01 02:38:28;;;;;;;4.63;4.10;;;17.90;99.90;;;;;;4936114;28;20622;-73
2021/08/01 02:40:57;;;;;;;5.03;3.97;;;17.90;99.90;;;;;;4931223;28;20725;-73
2021/08/01 02:43:26;;;;;;;6.80;4.37;;;17.90;99.90;;;;;;4939373;28;20781;-73
2021/08/01 02:45:55;;;;;;;5.50;5.00;;;17.90;99.90;;;;;;4953200;28;20626;-73
2021/08/01 02:48:23;;;;;;;5.20;4.70;;;17.90;99.90;;;;;;4942896;28;20623;-73
2021/08/01 02:50:56;;;;;;;5.30;4.80;;;17.90;99.90;;;;;;4944773;28;20822;-73
2021/08/01 02:53:23;;;;;;;5.97;4.60;;;17.90;99.90;;;;;;4939013;28;20668;-73
2021/08/01 02:55:54;;;;;;;6.23;4.63;;;17.80;99.90;;;;;;4934197;28;21081;-74
2021/08/01 02:58:22;;;;;;;5.33;4.83;;;17.80;99.90;;;;;;4941149;29;20668;-73
2021/08/01 03:00:51;;;;;;;5.70;5.20;;;17.80;99.90;;;;;;4943704;28;21127;-73
2021/08/01 03:03:19;;;;;;;5.67;5.00;;;17.80;99.90;;;;;;4939185;28;20651;-74
2021/08/01 03:05:46;;;;;;;5.30;4.87;;;17.90;99.90;;;;;;4938711;28;20619;-75
2021/08/01 03:08:14;;;;;;;5.03;4.57;;;17.80;99.90;;;;;;4944496;28;20621;-73
2021/08/01 03:10:46;;;;;;;5.07;4.67;;;17.80;99.90;;;;;;4941042;28;20993;-73
2021/08/01 03:13:13;;;;;;;5.60;5.10;;;17.80;99.90;;;;;;4939173;28;20647;-74
2021/08/01 03:15:44;;;;;;;6.10;5.50;;;17.70;99.90;;;;;;4939743;28;20643;-75
2021/08/01 03:18:14;;;;;;;5.87;5.37;;;17.70;99.90;;;;;;4942381;28;20694;-73
2021/08/01 03:20:42;;;;;;;5.80;5.30;;;17.70;99.90;;;;;;4939116;28;20778;-73
2021/08/01 03:23:10;;;;;;;5.03;4.63;;;17.70;99.90;;;;;;4942953;28;20657;-73
2021/08/01 03:25:39;;;;;;;5.90;5.30;;;17.70;99.90;;;;;;4940103;28;20647;-73
2021/08/01 03:28:05;;;;;;;8.03;5.17;;;17.70;99.90;;;;;;4939096;28;20623;-74
2021/08/01 03:30:35;;;;;;;5.90;5.40;;;17.70;99.90;;;;;;4936232;28;21230;-73
2021/08/01 03:33:01;;;;;;;6.13;5.23;;;17.70;99.90;;;;;;4943296;28;20560;-75
2021/08/01 03:35:26;;;;;;;6.30;5.80;;;17.50;99.90;;;;;;4943537;28;20675;-74
2021/08/01 03:37:52;;;;;;;6.30;5.70;;;17.60;99.90;;;;;;4942568;28;20237;-74
2021/08/01 03:40:25;;;;;;;6.67;5.53;;;17.50;99.90;;;;;;4935857;28;20286;-74
2021/08/01 03:42:51;;;;;;;5.73;5.20;;;17.50;99.90;;;;;;4942753;28;20635;-74
2021/08/01 03:45:16;;;;;;;4.30;4.00;;;17.50;99.90;;;;;;4944180;28;21224;-73
2021/08/01 03:47:44;;;;;;;4.37;3.90;;;17.40;99.90;;;;;;4943656;28;21068;-73
2021/08/01 03:50:12;;;;;;;6.00;4.30;;;17.50;99.90;;;;;;4934874;28;20295;-73
2021/08/01 03:52:37;;;;;;;5.60;4.20;;;17.40;99.90;;;;;;4943751;28;20714;-73
2021/08/01 03:55:06;;;;;;;4.70;4.30;;;17.40;99.90;;;;;;4936550;28;22227;-73
2021/08/01 03:57:34;;;;;;;4.27;3.87;;;17.40;99.90;;;;;;4942397;28;20527;-73
2021/08/01 03:59:59;;;;;;;5.73;4.27;;;17.50;99.90;;;;;;4940858;28;20644;-73
2021/08/01 04:02:30;;;;;;;5.37;4.43;;;17.50;99.90;;;;;;4938500;28;20619;-73
2021/08/01 04:05:03;;;;;;;6.40;3.90;;;17.50;99.90;;;;;;4940948;29;20263;-73
2021/08/01 04:07:36;;;;;;;4.30;3.90;;;17.50;99.90;;;;;;4943470;28;20612;-73
2021/08/01 04:10:21;;;;;;;5.10;4.40;;;17.40;99.90;;;;;;4939588;28;20989;-75
2021/08/01 04:12:46;;;;;;;4.00;3.60;;;17.40;99.90;;;;;;4938187;28;20657;-75
2021/08/01 04:15:15;;;;;;;3.73;3.43;;;17.40;99.90;;;;;;4942480;28;20627;-75
2021/08/01 04:17:41;;;;;;;5.20;3.83;;;17.50;99.90;;;;;;4944480;28;21962;-75
2021/08/01 04:20:07;;;;;;;3.60;3.30;;;17.40;99.90;;;;;;4941539;28;20637;-76
2021/08/01 04:22:35;;;;;;;4.00;3.70;;;17.40;99.90;;;;;;4936848;28;20198;-75
2021/08/01 04:25:03;;;;;;;3.87;3.47;;;17.40;99.90;;;;;;4940169;28;21177;-75
2021/08/01 04:27:29;;;;;;;3.63;3.30;;;17.40;99.90;;;;;;4941560;28;20638;-75
2021/08/01 04:29:56;;;;;;;3.97;3.40;;;17.40;99.90;;;;;;4948207;28;21005;-75
2021/08/01 04:32:22;;;;;;;4.30;3.73;;;17.40;99.90;;;;;;4943695;28;20215;-75
2021/08/01 04:34:49;;;;;;;3.93;3.40;;;17.40;99.90;;;;;;4944500;28;20627;-75
2021/08/01 04:37:15;;;;;;;4.67;4.20;;;17.40;99.90;;;;;;4942316;28;20211;-75
2021/08/01 04:39:40;;;;;;;4.47;4.07;;;17.50;99.90;;;;;;4946390;28;21210;-75
2021/08/01 04:42:06;;;;;;;4.60;3.73;;;17.40;99.90;;;;;;4946098;28;20201;-75
2021/08/01 04:44:34;;;;;;;5.17;4.20;;;17.50;99.90;;;;;;4943971;28;20324;-75
2021/08/01 04:46:59;;;;;;;6.27;4.40;;;17.50;99.90;;;;;;4943043;28;20255;-75
2021/08/01 04:49:25;;;;;;;6.77;5.10;;;17.50;99.90;;;;;;4935086;28;20667;-75
2021/08/01 04:51:51;;;;;;;5.97;5.30;;;17.50;99.90;;;;;;4939444;28;20192;-75
2021/08/01 04:54:16;;;;;;;7.10;6.40;;;17.50;99.90;;;;;;4940645;28;20282;-75
2021/08/01 04:56:45;;;;;;;7.60;6.87;;;17.50;99.90;;;;;;4940759;28;20577;-75
2021/08/01 04:59:11;;;;;;;8.50;7.07;;;17.50;99.90;;;;;;4940925;28;20183;-75
2021/08/01 05:01:37;;;;;;;9.00;7.93;;;17.50;99.90;;;;;;4940355;28;20730;-75
2021/08/01 05:04:03;;;;;;;9.70;8.60;;;17.50;99.90;;;;;;4944861;28;20741;-75
2021/08/01 05:06:28;;;;;;;8.27;7.47;;;17.50;99.90;;;;;;4939276;28;20214;-75
2021/08/01 05:08:54;;;;;;;9.03;8.10;;;17.60;99.90;;;;;;4941651;28;20763;-75
2021/08/01 05:11:19;;;;;;;9.37;8.30;;;17.60;99.90;;;;;;4940554;28;20262;-75
2021/08/01 05:13:48;;;;;;;10.00;7.70;;;17.60;99.90;;;;;;4939537;28;20204;-75
2021/08/01 05:16:19;;;;;;;8.73;7.83;;;17.60;99.90;;;;;;4940587;28;20291;-75
2021/08/01 05:18:45;;;;;;;8.50;7.67;;;17.60;99.90;;;;;;4943030;28;20624;-75
2021/08/01 05:21:11;;;;;;;8.30;7.50;;;17.70;99.90;;;;;;4944375;28;20626;-75
2021/08/01 05:23:36;;;;;;;8.10;7.30;;;17.70;99.90;;;;;;4943392;28;20199;-75
2021/08/01 05:26:05;;;;;;;8.90;6.87;;;17.70;99.90;;;;;;4936304;28;20626;-75
2021/08/01 05:28:33;;;;;;;9.40;7.00;;;17.70;99.90;;;;;;4941821;28;20711;-75
2021/08/01 05:30:59;;;;;;;8.93;8.03;;;17.80;99.90;;;;;;4940349;28;20634;-75
2021/08/01 05:33:24;;;;;;;8.77;7.17;;;17.80;99.90;;;;;;4942882;28;21051;-75
2021/08/01 05:35:50;;;;;;;8.50;7.40;;;17.80;99.90;;;;;;4941411;28;20211;-75
2021/08/01 05:38:18;;;;;;;9.13;7.77;;;17.80;99.90;;;;;;4943271;28;20192;-75
2021/08/01 05:40:44;;;;;;;8.50;7.27;;;17.90;99.90;;;;;;4942609;28;20223;-75
2021/08/01 05:43:15;;;;;;;8.13;6.70;;;17.90;99.90;;;;;;4939818;28;20685;-75
2021/08/01 05:45:43;;;;;;;7.63;6.90;;;17.90;99.90;;;;;;4949355;29;20726;-75
2021/08/01 05:48:14;;;;;;;8.50;7.53;;;17.90;99.90;;;;;;4938559;28;21182;-74
2021/08/01 05:50:50;;;;;;;7.73;6.80;;;18.00;99.90;;;;;;4943201;28;20754;-73
2021/08/01 05:53:20;;;;;;;7.53;6.53;;;18.00;99.90;;;;;;4945162;28;20650;-73
2021/08/01 05:55:54;;;;;;;7.70;7.00;;;18.00;99.90;;;;;;4946912;28;20649;-73
2021/08/01 05:58:29;;;;;;;8.90;7.20;;;18.10;99.90;;;;;;4946311;29;20625;-73
2021/08/01 06:00:54;;;;;;;9.30;6.67;;;18.10;99.90;;;;;;4943266;28;21041;-73
2021/08/01 06:03:20;;;;;;;8.60;7.37;;;18.10;99.90;;;;;;4936749;28;20639;-73
2021/08/01 06:05:45;;;;;;;8.27;7.33;;;17.90;99.90;;;;;;4926725;28;20200;-74
2021/08/01 06:08:11;;;;;;;9.90;8.53;;;18.20;99.90;;;;;;4936299;28;20282;-74
2021/08/01 06:10:36;;;;;;;9.10;7.40;;;18.00;99.90;;;;;;4945506;28;20227;-74
2021/08/01 06:13:04;;;;;;;11.73;8.03;;;18.10;99.90;;;;;;4961490;28;20385;-74
2021/08/01 06:15:30;;;;;;;10.07;7.60;;;18.10;99.90;;;;;;4947820;28;20588;-74
2021/08/01 06:17:55;;;;;;;8.43;7.53;;;18.10;99.90;;;;;;4940231;28;21014;-76
2021/08/01 06:20:21;;;;;;;8.83;7.50;;;18.00;99.90;;;;;;4940332;28;20255;-76
2021/08/01 06:22:46;;;;;;;10.13;7.67;;;18.10;99.90;;;;;;4948579;28;20212;-76
2021/08/01 06:25:12;;;;;;;10.90;6.93;;;18.10;99.90;;;;;;4939968;28;20372;-76
2021/08/01 06:27:37;;;;;;;7.73;7.03;;;18.20;99.90;;;;;;4942146;28;20203;-77
2021/08/01 06:30:06;;;;;;;11.50;7.40;;;18.20;99.90;;;;;;4942008;28;20286;-75
2021/08/01 06:32:31;;;;;;;8.83;7.67;;;18.20;99.90;;;;;;4941867;28;20199;-77
2021/08/01 06:34:57;;;;;;;7.93;7.20;;;18.30;99.90;;;;;;4944530;28;21214;-78
2021/08/01 06:37:22;;;;;;;7.70;6.90;;;18.30;99.90;;;;;;4944355;28;20231;-77
2021/08/01 06:39:48;;;;;;;9.53;7.23;;;18.30;99.90;;;;;;4947138;28;20621;-77
2021/08/01 06:42:16;;;;;;;10.33;7.40;;;18.30;99.90;;;;;;4940035;28;20196;-78
2021/08/01 06:44:41;;;;;;;7.80;7.07;;;18.30;99.90;;;;;;4939881;28;20242;-77
2021/08/01 06:47:07;;;;;;;9.70;6.73;;;18.40;99.90;;;;;;4944003;28;20841;-74
2021/08/01 06:49:32;;;;;;;7.53;6.83;;;18.50;99.90;;;;;;4941532;28;20228;-74
2021/08/01 06:51:58;;;;;;;10.40;7.80;;;18.60;99.90;;;;;;4940012;28;20203;-74
2021/08/01 06:54:23;;;;;;;10.00;7.20;;;18.60;99.90;;;;;;4947992;28;20219;-74
2021/08/01 06:56:49;;;;;;;7.80;7.00;;;18.70;99.90;;;;;;4947391;28;20218;-73
2021/08/01 06:59:14;;;;;;;7.60;6.77;;;18.70;99.90;;;;;;4941592;28;20203;-73
2021/08/01 07:01:40;;;;;;;10.23;7.40;;;18.70;99.90;;;;;;4943230;28;20195;-73
2021/08/01 07:04:06;;;;;;;9.20;7.30;;;18.80;99.90;;;;;;4947308;28;20279;-73
2021/08/01 07:06:32;;;;;;;9.00;7.73;;;18.80;99.90;;;;;;4941593;28;20343;-74
2021/08/01 07:09:00;;;;;;;10.60;7.80;;;18.90;99.90;;;;;;4940473;28;24372;-73
2021/08/01 07:11:26;;;;;;;8.00;7.10;;;18.90;99.90;;;;;;4942844;28;20183;-74
2021/08/01 07:13:51;;;;;;;7.23;6.53;;;19.00;99.90;;;;;;4936425;28;20650;-75
2021/08/01 07:16:17;;;;;;;7.17;6.57;;;19.00;99.90;;;;;;4939456;28;20567;-75
2021/08/01 07:18:42;;;;;;;7.43;6.73;;;19.00;99.90;;;;;;4933571;28;20191;-75
2021/08/01 07:21:10;;;;;;;7.97;6.83;;;19.10;99.90;;;;;;4937526;28;20314;-78
2021/08/01 07:23:36;;;;;;;8.83;7.33;;;19.10;99.90;;;;;;4934220;28;20238;-75
2021/08/01 07:26:02;;;;;;;11.40;7.30;;;19.10;99.90;;;;;;4929107;28;20670;-77
2021/08/01 07:28:27;;;;;;;12.30;6.63;;;19.10;99.90;;;;;;4941178;28;20207;-75
2021/08/01 07:30:53;;;;;;;8.53;7.53;;;19.10;99.90;;;;;;4935145;28;20646;-77
2021/08/01 07:33:20;;;;;;;8.37;7.57;;;19.20;99.90;;;;;;4943907;28;20211;-76
2021/08/01 07:35:46;;;;;;;10.87;7.60;;;19.20;99.90;;;;;;4933159;28;20223;-77
2021/08/01 07:38:11;;;;;;;8.03;7.23;;;19.30;99.90;;;;;;4937467;28;20644;-77
2021/08/01 07:40:39;;;;;;;9.73;6.60;;;19.30;99.90;;;;;;4944784;28;20744;-77
2021/08/01 07:43:05;;;;;;;9.90;7.97;;;19.30;99.90;;;;;;4936042;28;20215;-77
2021/08/01 07:45:34;;;;;;;8.80;7.90;;;19.30;99.90;;;;;;4946320;28;20625;-77
2021/08/01 07:48:00;;;;;;;9.80;7.33;;;19.40;99.90;;;;;;4943202;28;20755;-77
2021/08/01 07:50:27;;;;;;;10.10;8.20;;;19.40;99.90;;;;;;4939695;28;20638;-79
2021/08/01 07:52:53;;;;;;;9.03;8.00;;;19.50;99.90;;;;;;4941452;28;20638;-77
2021/08/01 07:55:19;;;;;;;8.80;7.30;;;19.60;99.90;;;;;;4948629;28;20734;-77
2021/08/01 07:57:45;;;;;;;7.77;6.97;;;19.60;99.90;;;;;;4947963;28;20611;-77
2021/08/01 08:00:13;;;;;;;7.90;7.10;;;19.60;99.90;;;;;;4936260;28;20254;-76
2021/08/01 08:02:39;;;;;;;8.70;7.10;;;19.70;99.90;;;;;;4942132;28;20746;-77
2021/08/01 08:05:04;;;;;;;10.00;6.63;;;19.70;99.90;;;;;;4940628;28;20620;-77
2021/08/01 08:07:30;;;;;;;8.73;6.57;;;19.70;99.90;;;;;;4941483;28;20195;-75
2021/08/01 08:09:55;;;;;;;7.80;7.00;;;19.70;99.90;;;;;;4943842;28;20398;-77
2021/08/01 08:12:21;;;;;;;7.70;6.90;;;19.80;99.90;;;;;;4945740;28;20685;-77
2021/08/01 08:14:47;;;;;;;7.13;6.57;;;19.80;99.90;;;;;;4942796;28;20334;-77
2021/08/01 08:17:12;;;;;;;7.97;6.90;;;19.80;99.90;;;;;;4942551;28;20204;-77
2021/08/01 08:19:39;;;;;;;7.37;6.60;;;19.80;99.90;;;;;;4940854;28;20458;-79
2021/08/01 08:22:06;;;;;;;9.47;7.47;;;19.90;99.90;;;;;;4944082;28;20261;-79
2021/08/01 08:24:32;;;;;;;9.90;7.50;;;19.90;99.90;;;;;;4942865;28;20655;-77
2021/08/01 08:27:00;;;;;;;7.73;6.77;;;20.00;99.90;;;;;;4940537;28;20670;-78
2021/08/01 08:29:25;;;;;;;7.47;6.77;;;20.00;99.90;;;;;;4934699;28;20227;-78
2021/08/01 08:31:53;;;;;;;7.63;6.83;;;20.00;99.90;;;;;;4949993;28;21066;-81
2021/08/01 08:34:22;;;;;;;6.40;5.90;;;20.10;99.90;;;;;;4955183;28;20215;-81
2021/08/01 08:36:49;;;;;;;7.33;6.73;;;20.10;99.90;;;;;;4953988;28;20661;-80
2021/08/01 08:39:19;;;;;;;7.53;6.90;;;20.10;99.90;;;;;;4951738;28;20701;-81
2021/08/01 08:41:45;;;;;;;7.60;6.83;;;20.00;99.90;;;;;;4940291;29;20710;-77
2021/08/01 08:44:11;;;;;;;6.10;5.57;;;20.00;99.90;;;;;;4942289;28;20738;-77
2021/08/01 08:46:38;;;;;;;7.40;6.23;;;20.00;99.90;;;;;;4939662;28;20225;-76
2021/08/01 08:49:08;;;;;;;8.13;6.40;;;20.00;99.90;;;;;;4935956;28;20226;-77
2021/08/01 08:51:36;;;;;;;6.40;5.80;;;19.90;99.90;;;;;;4942685;28;20629;-77
2021/08/01 08:54:03;;;;;;;6.80;6.17;;;20.00;99.90;;;;;;4936395;28;20643;-74
2021/08/01 08:56:29;;;;;;;7.20;6.60;;;20.10;99.90;;;;;;4944846;29;20726;-77
2021/08/01 08:58:55;;;;;;;5.80;5.30;;;20.20;99.90;;;;;;4940714;28;20997;-75
2021/08/01 09:01:23;;;;;;;7.10;5.93;;;20.20;99.90;;;;;;4939301;29;20593;-75
2021/08/01 09:03:49;;;;;;;6.80;5.67;;;20.20;99.90;;;;;;4941739;28;20828;-75
2021/08/01 09:06:18;;;;;;;6.03;5.43;;;20.20;99.90;;;;;;4942371;28;20646;-75
2021/08/01 09:08:43;;;;;;;9.20;6.60;;;20.10;99.90;;;;;;4940862;28;21053;-74
2021/08/01 09:11:09;;;;;;;6.73;6.13;;;20.20;99.90;;;;;;4945907;28;20647;-75
2021/08/01 09:13:50;;;;;;;6.00;5.40;;;20.20;99.90;;;;;;4940971;28;20360;-76
2021/08/01 09:16:18;;;;;;;6.87;6.30;;;20.20;99.90;;;;;;4948535;28;20614;-78
2021/08/01 09:18:45;;;;;;;6.47;5.87;;;20.20;99.90;;;;;;4938992;28;20998;-73
2021/08/01 09:21:29;;;;;;;6.50;5.90;;;20.30;99.90;;;;;;4947695;28;21335;-73
2021/08/01 09:23:54;;;;;;;7.73;5.50;;;20.40;99.90;;;;;;4946070;28;20688;-74
2021/08/01 09:26:20;;;;;;;6.37;5.80;;;20.40;99.90;;;;;;4940892;28;20639;-73
2021/08/01 09:29:03;;;;;;;5.90;5.40;;;20.40;99.90;;;;;;4937666;28;20210;-74
2021/08/01 09:31:29;;;;;;;17.03;6.63;;;20.40;99.90;;;;;;4944002;28;20228;-74
2021/08/01 09:33:55;;;;;;;6.27;5.67;;;20.40;99.90;;;;;;4941168;28;20665;-75
2021/08/01 09:36:24;;;;;;;5.73;5.23;;;20.50;99.90;;;;;;4941361;28;20258;-75
2021/08/01 09:39:00;;;;;;;5.87;5.37;;;20.50;99.90;;;;;;4946038;29;20203;-75
2021/08/01 09:41:32;;;;;;;6.07;5.50;;;20.60;99.90;;;;;;4936904;28;20691;-75
2021/08/01 09:44:00;;;;;;;6.00;5.47;;;20.70;99.90;;;;;;4942637;28;20714;-76
2021/08/01 09:46:39;;;;;;;5.60;5.03;;;20.70;99.90;;;;;;4946826;28;20637;-76
2021/08/01 09:49:30;;;;;;;6.43;5.83;;;20.60;99.90;;;;;;4945496;28;20701;-76
2021/08/01 09:51:58;;;;;;;6.80;6.00;;;20.60;99.90;;;;;;4943881;28;20626;-77
2021/08/01 09:54:26;;;;;;;5.90;5.20;;;20.70;99.90;;;;;;4941942;28;20728;-78
2021/08/01 09:57:03;;;;;;;4.90;4.47;;;20.70;99.90;;;;;;4946328;29;20643;-77
2021/08/01 09:59:32;;;;;;;5.67;5.10;;;20.80;99.90;;;;;;4939185;28;20626;-74
2021/08/01 10:01:59;;;;;;;5.00;4.50;;;20.80;99.90;;;;;;4939156;28;20738;-78
2021/08/01 10:04:30;;;;;;;4.90;4.50;;;20.70;99.90;;;;;;4940000;29;21203;-73
2021/08/01 10:07:05;;;;;;;5.90;4.20;;;20.70;99.90;;;;;;4934911;28;20623;-75
2021/08/01 10:09:31;;;;;;;4.80;4.40;;;21.10;99.90;;;;;;4939057;28;20673;-74
2021/08/01 10:11:56;;;;;;;4.77;3.97;;;20.80;99.90;;;;;;4938744;28;20615;-75
2021/08/01 10:14:22;;;;;;;4.17;3.87;;;20.90;99.90;;;;;;4946235;28;21078;-75
2021/08/01 10:16:48;;;;;;;4.20;3.90;;;20.60;99.90;;;;;;4938290;28;20274;-75
2021/08/01 10:19:14;;;;;;;4.03;3.73;;;21.00;99.90;;;;;;4939281;28;21151;-75
2021/08/01 10:21:43;;;;;;;3.57;3.27;;;21.00;99.90;;;;;;4941042;29;20262;-75
2021/08/01 10:24:13;;;;;;;4.50;4.13;;;20.90;99.90;;;;;;4943765;28;20649;-75
2021/08/01 10:26:44;;;;;;;3.83;3.50;;;21.00;99.90;;;;;;4945135;28;20669;-74
2021/08/01 10:29:12;;;;;;;4.20;3.70;;;21.10;99.90;;;;;;4939642;28;20634;-74
2021/08/01 10:31:48;;;;;;;4.50;4.10;;;21.20;99.90;;;;;;4945020;28;20626;-74
2021/08/01 10:34:19;;;;;;;4.47;4.07;;;21.30;99.90;;;;;;4955246;28;21832;-75
2021/08/01 10:36:52;;;;;;;4.87;4.47;;;21.20;99.90;;;;;;4942152;28;20666;-75
2021/08/01 10:39:19;;;;;;;5.07;4.30;;;21.40;99.90;;;;;;4941961;28;20626;-75
2021/08/01 10:41:45;;;;;;;4.77;4.33;;;21.40;99.90;;;;;;4941538;29;20619;-75
2021/08/01 10:44:12;;;;;;;4.70;4.30;;;21.40;99.90;;;;;;4945315;28;20797;-74
2021/08/01 10:46:40;;;;;;;4.47;4.17;;;21.50;99.90;;;;;;4942693;29;20205;-74
2021/08/01 10:49:08;;;;;;;4.43;4.13;;;21.80;99.90;;;;;;4936952;28;20987;-75
2021/08/01 10:51:34;;;;;;;4.77;4.33;;;21.90;99.90;;;;;;4940808;28;20627;-74
2021/08/01 10:54:22;;;;;;;4.67;4.37;;;22.00;99.90;;;;;;4940316;28;20649;-74
2021/08/01 10:57:15;;;;;;;4.27;3.97;;;22.00;99.90;;;;;;4940456;29;20651;-75
2021/08/01 10:59:43;;;;;;;4.20;3.90;;;22.00;99.90;;;;;;4934087;28;20630;-74
2021/08/01 11:02:20;;;;;;;5.20;4.90;;;21.90;99.90;;;;;;4943783;28;21021;-74
2021/08/01 11:04:47;;;;;;;5.13;4.77;;;21.90;99.90;;;;;;4946419;28;21021;-74
2021/08/01 11:07:28;;;;;;;4.73;4.43;;;22.00;99.90;;;;;;4944649;29;20711;-74
2021/08/01 11:10:13;;;;;;;4.37;4.10;;;22.00;99.90;;;;;;4946740;28;20634;-74
2021/08/01 11:12:42;;;;;;;2.63;2.47;;;22.20;99.90;;;;;;4943033;28;20624;-74
2021/08/01 11:15:12;;;;;;;3.30;3.00;;;22.00;99.90;;;;;;4945014;28;20653;-74
2021/08/01 11:17:42;;;;;;;2.70;2.50;;;21.90;99.90;;;;;;4943775;28;20726;-74
2021/08/01 11:20:16;;;;;;;2.70;2.50;;;21.70;99.90;;;;;;4946313;28;20730;-74
2021/08/01 11:22:42;;;;;;;3.53;3.23;;;21.50;99.90;;;;;;4941647;28;20642;-73
2021/08/01 11:25:27;;;;;;;2.97;2.77;;;21.40;99.90;;;;;;4948938;28;20611;-74
2021/08/01 11:28:09;;;;;;;3.53;3.23;;;21.20;99.90;;;;;;4946581;28;21226;-75
2021/08/01 11:30:49;;;;;;;2.83;2.63;;;21.10;99.90;;;;;;4945093;28;20639;-75
2021/08/01 11:33:43;;;;;;;3.17;2.87;;;21.00;99.90;;;;;;4942014;28;20702;-75
2021/08/01 11:36:17;;;;;;;2.83;2.63;;;20.90;99.90;;;;;;4947711;29;20645;-75
2021/08/01 11:38:52;;;;;;;3.20;2.60;;;20.80;99.90;;;;;;4944871;28;20604;-77
2021/08/01 11:44:11;;;;;;;4.77;3.37;;;20.60;99.90;;;;;;4947917;28;21244;-75
2021/08/01 11:46:55;;;;;;;5.50;3.07;;;20.50;99.90;;;;;;4940122;29;20673;-75
2021/08/01 11:49:34;;;;;;;3.70;2.90;;;20.50;99.90;;;;;;4946133;28;20635;-75
2021/08/01 11:52:02;;;;;;;3.90;3.60;;;20.20;99.90;;;;;;4947930;29;20770;-75
2021/08/01 11:54:42;;;;;;;4.00;3.17;;;20.10;99.90;;;;;;4941326;28;21221;-76
2021/08/01 11:57:12;;;;;;;5.93;3.80;;;20.00;99.90;;;;;;4947008;28;21390;-76
2021/08/01 11:59:40;;;;;;;4.87;3.60;;;20.00;99.90;;;;;;4944598;28;21311;-74
2021/08/01 12:02:17;;;;;;;5.07;3.90;;;20.00;99.90;;;;;;4944211;28;20611;-74
2021/08/01 12:04:59;;;;;;;3.77;3.47;;;20.00;99.90;;;;;;4948532;28;20690;-74
2021/08/01 12:07:41;;;;;;;4.60;4.10;;;19.90;99.90;;;;;;4936971;28;21407;-74
2021/08/01 12:10:25;;;;;;;4.60;4.20;;;20.00;99.90;;;;;;4937497;28;20968;-73
2021/08/01 12:12:52;;;;;;;4.33;3.93;;;20.00;99.90;;;;;;4938093;28;20682;-75
2021/08/01 12:15:19;;;;;;;4.30;3.90;;;20.10;99.90;;;;;;4933426;29;20659;-72
2021/08/01 12:17:45;;;;;;;4.77;3.93;;;20.00;99.90;;;;;;4942117;28;20685;-75
2021/08/01 12:20:11;;;;;;;4.17;3.87;;;20.10;99.90;;;;;;4947193;28;21246;-75
2021/08/01 12:22:37;;;;;;;4.00;3.70;;;20.10;99.90;;;;;;4935698;28;21033;-75
2021/08/01 12:25:05;;;;;;;3.97;3.67;;;20.20;99.90;;;;;;4937213;28;20615;-77
2021/08/01 12:27:41;;;;;;;4.13;3.80;;;20.00;99.90;;;;;;4932989;28;21305;-77
2021/08/01 12:30:07;;;;;;;4.80;3.90;;;20.00;99.90;;;;;;4937690;28;20724;-75
2021/08/01 12:32:41;;;;;;;4.27;3.90;;;20.10;99.90;;;;;;4936746;28;20646;-75
2021/08/01 12:35:10;;;;;;;3.83;3.37;;;20.00;99.90;;;;;;4936010;28;20621;-75
2021/08/01 12:38:00;;;;;;;3.50;3.30;;;20.00;99.90;;;;;;4934721;28;20678;-74
2021/08/01 12:40:32;;;;;;;3.70;3.40;;;19.90;99.90;;;;;;4938101;28;20639;-75
2021/08/01 12:43:01;;;;;;;4.80;3.70;;;19.90;99.90;;;;;;4939922;28;21063;-78
2021/08/01 12:45:34;;;;;;;3.20;3.00;;;19.80;99.90;;;;;;4943480;28;20611;-78
2021/08/01 12:48:04;;;;;;;4.93;3.20;;;19.70;99.90;;;;;;4948835;29;20621;-77
2021/08/01 12:50:31;;;;;;;3.30;3.10;;;19.60;99.90;;;;;;4935768;28;20623;-75
2021/08/01 12:52:58;;;;;;;3.93;3.60;;;19.80;99.90;;;;;;4933623;28;21309;-76
2021/08/01 12:55:24;;;;;;;3.33;3.03;;;19.50;99.90;;;;;;4943067;28;20988;-75
2021/08/01 12:58:07;;;;;;;3.43;3.13;;;19.50;99.90;;;;;;4940365;28;20715;-76
2021/08/01 13:00:35;;;;;;;6.47;3.30;;;19.50;99.90;;;;;;4943101;28;21126;-76
2021/08/01 13:03:03;;;;;;;3.37;3.07;;;19.50;99.90;;;;;;4945729;28;20638;-75